sensor_id;sensor_type;location;lat;lon;timestamp;P1;durP1;ratioP1;P2;durP2;ratioP2
52268;SDS011;38224;50.950;4.100;2023-10-13T00:01:24;13.85;;;7.25;;
52268;SDS011;38224;50.950;4.100;2023-10-13T00:03:50;18.60;;;6.97;;
52268;SDS011;38224;50.950;4.100;2023-10-13T00:06:17;18.20;;;6.90;;
52268;SDS011;38224;50.950;4.100;2023-10-13T00:08:43;14.13;;;7.60;;
52268;SDS011;38224;50.950;4.100;2023-10-13T00:11:11;10.63;;;6.90;;
52268;SDS011;38224;50.950;4.100;2023-10-13T00:13:37;19.33;;;6.95;;
52268;SDS011;38224;50.950;4.100;2023-10-13T00:16:14;12.93;;;6.63;;
52268;SDS011;38224;50.950;4.100;2023-10-13T00:18:42;13.40;;;6.40;;
52268;SDS011;38224;50.950;4.100;2023-10-13T00:21:09;21.58;;;7.88;;
52268;SDS011;38224;50.950;4.100;2023-10-13T00:23:38;12.00;;;6.60;;
52268;SDS011;38224;50.950;4.100;2023-10-13T00:26:04;11.95;;;6.53;;
52268;SDS011;38224;50.950;4.100;2023-10-13T00:28:29;15.83;;;7.23;;
52268;SDS011;38224;50.950;4.100;2023-10-13T00:31:01;15.18;;;6.75;;
52268;SDS011;38224;50.950;4.100;2023-10-13T00:33:35;16.08;;;6.72;;
52268;SDS011;38224;50.950;4.100;2023-10-13T00:36:01;14.45;;;7.80;;
52268;SDS011;38224;50.950;4.100;2023-10-13T00:38:26;15.13;;;7.00;;
52268;SDS011;38224;50.950;4.100;2023-10-13T00:40:52;13.43;;;7.47;;
52268;SDS011;38224;50.950;4.100;2023-10-13T00:43:18;24.92;;;9.98;;
52268;SDS011;38224;50.950;4.100;2023-10-13T00:45:46;13.68;;;8.40;;
52268;SDS011;38224;50.950;4.100;2023-10-13T00:48:32;14.10;;;9.52;;
52268;SDS011;38224;50.950;4.100;2023-10-13T00:51:00;17.58;;;9.93;;
52268;SDS011;38224;50.950;4.100;2023-10-13T00:53:28;26.90;;;12.07;;
52268;SDS011;38224;50.950;4.100;2023-10-13T00:55:54;21.83;;;11.68;;
52268;SDS011;38224;50.950;4.100;2023-10-13T00:58:23;24.52;;;13.25;;
52268;SDS011;38224;50.950;4.100;2023-10-13T01:00:50;23.33;;;13.63;;
52268;SDS011;38224;50.950;4.100;2023-10-13T01:03:21;26.85;;;13.60;;
52268;SDS011;38224;50.950;4.100;2023-10-13T01:05:51;22.48;;;14.73;;
52268;SDS011;38224;50.950;4.100;2023-10-13T01:08:19;26.67;;;15.38;;
52268;SDS011;38224;50.950;4.100;2023-10-13T01:10:48;28.77;;;17.48;;
52268;SDS011;38224;50.950;4.100;2023-10-13T01:13:14;30.13;;;15.60;;
52268;SDS011;38224;50.950;4.100;2023-10-13T01:15:42;32.97;;;16.65;;
52268;SDS011;38224;50.950;4.100;2023-10-13T01:18:10;35.93;;;19.27;;
52268;SDS011;38224;50.950;4.100;2023-10-13T01:20:37;32.03;;;19.83;;
52268;SDS011;38224;50.950;4.100;2023-10-13T01:23:17;32.15;;;21.60;;
52268;SDS011;38224;50.950;4.100;2023-10-13T01:25:49;38.77;;;23.60;;
52268;SDS011;38224;50.950;4.100;2023-10-13T01:28:14;44.08;;;23.08;;
52268;SDS011;38224;50.950;4.100;2023-10-13T01:30:44;44.38;;;23.75;;
52268;SDS011;38224;50.950;4.100;2023-10-13T01:33:14;44.45;;;22.90;;
52268;SDS011;38224;50.950;4.100;2023-10-13T01:35:40;41.30;;;25.43;;
52268;SDS011;38224;50.950;4.100;2023-10-13T01:38:12;44.93;;;25.43;;
52268;SDS011;38224;50.950;4.100;2023-10-13T01:40:38;42.95;;;26.30;;
52268;SDS011;38224;50.950;4.100;2023-10-13T01:43:03;49.38;;;28.58;;
52268;SDS011;38224;50.950;4.100;2023-10-13T01:45:29;50.05;;;27.33;;
52268;SDS011;38224;50.950;4.100;2023-10-13T01:47:55;49.88;;;28.55;;
52268;SDS011;38224;50.950;4.100;2023-10-13T01:50:21;51.95;;;29.13;;
52268;SDS011;38224;50.950;4.100;2023-10-13T01:52:53;52.33;;;28.50;;
52268;SDS011;38224;50.950;4.100;2023-10-13T01:55:30;49.00;;;28.50;;
52268;SDS011;38224;50.950;4.100;2023-10-13T01:57:56;49.70;;;28.25;;
52268;SDS011;38224;50.950;4.100;2023-10-13T02:00:21;57.50;;;30.13;;
52268;SDS011;38224;50.950;4.100;2023-10-13T02:02:46;49.47;;;28.27;;
52268;SDS011;38224;50.950;4.100;2023-10-13T02:05:15;45.28;;;26.77;;
52268;SDS011;38224;50.950;4.100;2023-10-13T02:07:42;44.63;;;27.02;;
52268;SDS011;38224;50.950;4.100;2023-10-13T02:10:10;45.17;;;25.98;;
52268;SDS011;38224;50.950;4.100;2023-10-13T02:12:37;39.88;;;26.00;;
52268;SDS011;38224;50.950;4.100;2023-10-13T02:15:09;51.63;;;25.98;;
52268;SDS011;38224;50.950;4.100;2023-10-13T02:17:37;45.47;;;24.70;;
52268;SDS011;38224;50.950;4.100;2023-10-13T02:20:06;43.45;;;23.83;;
52268;SDS011;38224;50.950;4.100;2023-10-13T02:22:41;46.33;;;23.10;;
52268;SDS011;38224;50.950;4.100;2023-10-13T02:25:14;37.20;;;22.67;;
52268;SDS011;38224;50.950;4.100;2023-10-13T02:27:42;40.08;;;22.45;;
52268;SDS011;38224;50.950;4.100;2023-10-13T02:30:08;42.63;;;21.83;;
52268;SDS011;38224;50.950;4.100;2023-10-13T02:32:40;41.53;;;21.90;;
52268;SDS011;38224;50.950;4.100;2023-10-13T02:35:06;46.72;;;24.08;;
52268;SDS011;38224;50.950;4.100;2023-10-13T02:37:34;43.15;;;20.88;;
52268;SDS011;38224;50.950;4.100;2023-10-13T02:40:00;32.35;;;18.52;;
52268;SDS011;38224;50.950;4.100;2023-10-13T02:42:25;32.13;;;19.95;;
52268;SDS011;38224;50.950;4.100;2023-10-13T02:44:51;38.00;;;20.67;;
52268;SDS011;38224;50.950;4.100;2023-10-13T02:47:17;38.08;;;20.23;;
52268;SDS011;38224;50.950;4.100;2023-10-13T02:49:44;43.88;;;21.13;;
52268;SDS011;38224;50.950;4.100;2023-10-13T02:52:12;37.92;;;20.73;;
52268;SDS011;38224;50.950;4.100;2023-10-13T02:54:41;43.30;;;20.20;;
52268;SDS011;38224;50.950;4.100;2023-10-13T02:57:12;35.33;;;18.63;;
52268;SDS011;38224;50.950;4.100;2023-10-13T02:59:37;33.03;;;18.35;;
52268;SDS011;38224;50.950;4.100;2023-10-13T03:02:06;35.25;;;19.17;;
52268;SDS011;38224;50.950;4.100;2023-10-13T03:07:14;34.40;;;19.60;;
52268;SDS011;38224;50.950;4.100;2023-10-13T03:09:51;40.47;;;21.30;;
52268;SDS011;38224;50.950;4.100;2023-10-13T03:12:17;34.53;;;19.52;;
52268;SDS011;38224;50.950;4.100;2023-10-13T03:14:42;36.95;;;19.98;;
52268;SDS011;38224;50.950;4.100;2023-10-13T03:17:12;38.63;;;20.23;;
52268;SDS011;38224;50.950;4.100;2023-10-13T03:19:43;46.63;;;20.35;;
52268;SDS011;38224;50.950;4.100;2023-10-13T03:22:14;31.10;;;17.70;;
52268;SDS011;38224;50.950;4.100;2023-10-13T03:24:41;33.90;;;18.67;;
52268;SDS011;38224;50.950;4.100;2023-10-13T03:27:16;33.70;;;18.20;;
52268;SDS011;38224;50.950;4.100;2023-10-13T03:29:42;42.88;;;18.13;;
52268;SDS011;38224;50.950;4.100;2023-10-13T03:32:09;33.35;;;19.33;;
52268;SDS011;38224;50.950;4.100;2023-10-13T03:34:37;32.88;;;18.02;;
52268;SDS011;38224;50.950;4.100;2023-10-13T03:37:06;32.90;;;18.52;;
52268;SDS011;38224;50.950;4.100;2023-10-13T03:39:42;33.78;;;17.42;;
52268;SDS011;38224;50.950;4.100;2023-10-13T03:42:10;28.90;;;16.75;;
52268;SDS011;38224;50.950;4.100;2023-10-13T03:44:43;31.23;;;16.60;;
52268;SDS011;38224;50.950;4.100;2023-10-13T03:47:11;25.73;;;15.75;;
52268;SDS011;38224;50.950;4.100;2023-10-13T03:49:43;42.87;;;17.47;;
52268;SDS011;38224;50.950;4.100;2023-10-13T03:52:09;37.13;;;15.40;;
52268;SDS011;38224;50.950;4.100;2023-10-13T03:54:38;33.17;;;16.65;;
52268;SDS011;38224;50.950;4.100;2023-10-13T03:57:05;32.58;;;17.23;;
52268;SDS011;38224;50.950;4.100;2023-10-13T03:59:37;33.22;;;16.38;;
52268;SDS011;38224;50.950;4.100;2023-10-13T04:02:02;28.02;;;14.50;;
52268;SDS011;38224;50.950;4.100;2023-10-13T04:04:37;31.10;;;15.45;;
52268;SDS011;38224;50.950;4.100;2023-10-13T04:07:14;29.63;;;14.25;;
52268;SDS011;38224;50.950;4.100;2023-10-13T04:10:04;30.70;;;14.18;;
52268;SDS011;38224;50.950;4.100;2023-10-13T04:12:55;33.15;;;14.07;;
52268;SDS011;38224;50.950;4.100;2023-10-13T04:15:39;29.48;;;15.25;;
52268;SDS011;38224;50.950;4.100;2023-10-13T04:18:26;29.70;;;13.25;;
52268;SDS011;38224;50.950;4.100;2023-10-13T04:21:10;33.08;;;14.18;;
52268;SDS011;38224;50.950;4.100;2023-10-13T04:23:55;26.08;;;14.68;;
52268;SDS011;38224;50.950;4.100;2023-10-13T04:26:39;27.50;;;12.85;;
52268;SDS011;38224;50.950;4.100;2023-10-13T04:29:24;32.22;;;13.95;;
52268;SDS011;38224;50.950;4.100;2023-10-13T04:32:10;27.77;;;13.32;;
52268;SDS011;38224;50.950;4.100;2023-10-13T04:34:39;33.13;;;13.07;;
52268;SDS011;38224;50.950;4.100;2023-10-13T04:37:04;29.63;;;12.40;;
52268;SDS011;38224;50.950;4.100;2023-10-13T04:39:56;31.80;;;12.63;;
52268;SDS011;38224;50.950;4.100;2023-10-13T04:42:25;30.80;;;12.18;;
52268;SDS011;38224;50.950;4.100;2023-10-13T04:45:09;20.63;;;11.25;;
52268;SDS011;38224;50.950;4.100;2023-10-13T04:47:53;27.65;;;12.82;;
52268;SDS011;38224;50.950;4.100;2023-10-13T04:50:22;29.23;;;11.50;;
52268;SDS011;38224;50.950;4.100;2023-10-13T04:52:59;32.83;;;13.25;;
52268;SDS011;38224;50.950;4.100;2023-10-13T04:55:28;25.75;;;11.43;;
52268;SDS011;38224;50.950;4.100;2023-10-13T04:58:24;27.25;;;11.70;;
52268;SDS011;38224;50.950;4.100;2023-10-13T05:01:12;26.95;;;12.23;;
52268;SDS011;38224;50.950;4.100;2023-10-13T05:03:50;29.95;;;12.02;;
52268;SDS011;38224;50.950;4.100;2023-10-13T05:06:30;27.50;;;12.60;;
52268;SDS011;38224;50.950;4.100;2023-10-13T05:09:14;25.15;;;11.68;;
52268;SDS011;38224;50.950;4.100;2023-10-13T05:11:58;24.90;;;12.25;;
52268;SDS011;38224;50.950;4.100;2023-10-13T05:14:42;25.00;;;11.85;;
52268;SDS011;38224;50.950;4.100;2023-10-13T05:17:26;25.58;;;11.68;;
52268;SDS011;38224;50.950;4.100;2023-10-13T05:20:10;28.85;;;11.70;;
52268;SDS011;38224;50.950;4.100;2023-10-13T05:22:54;22.85;;;11.70;;
52268;SDS011;38224;50.950;4.100;2023-10-13T05:25:38;31.63;;;12.00;;
52268;SDS011;38224;50.950;4.100;2023-10-13T05:28:22;26.10;;;11.88;;
52268;SDS011;38224;50.950;4.100;2023-10-13T05:31:07;31.42;;;12.30;;
52268;SDS011;38224;50.950;4.100;2023-10-13T05:33:51;29.60;;;11.18;;
52268;SDS011;38224;50.950;4.100;2023-10-13T05:36:34;30.45;;;13.43;;
52268;SDS011;38224;50.950;4.100;2023-10-13T05:39:18;31.83;;;11.70;;
52268;SDS011;38224;50.950;4.100;2023-10-13T05:42:02;31.77;;;11.80;;
52268;SDS011;38224;50.950;4.100;2023-10-13T05:44:46;28.33;;;10.85;;
52268;SDS011;38224;50.950;4.100;2023-10-13T05:47:38;31.45;;;11.88;;
52268;SDS011;38224;50.950;4.100;2023-10-13T05:50:04;25.30;;;11.02;;
52268;SDS011;38224;50.950;4.100;2023-10-13T05:52:38;29.83;;;10.70;;
52268;SDS011;38224;50.950;4.100;2023-10-13T05:55:22;23.85;;;10.13;;
52268;SDS011;38224;50.950;4.100;2023-10-13T05:58:05;20.05;;;10.00;;
52268;SDS011;38224;50.950;4.100;2023-10-13T06:00:50;22.08;;;9.65;;
52268;SDS011;38224;50.950;4.100;2023-10-13T06:03:33;27.42;;;10.00;;
52268;SDS011;38224;50.950;4.100;2023-10-13T06:06:17;27.67;;;9.80;;
52268;SDS011;38224;50.950;4.100;2023-10-13T06:09:02;23.17;;;9.48;;
52268;SDS011;38224;50.950;4.100;2023-10-13T06:11:45;24.75;;;10.25;;
52268;SDS011;38224;50.950;4.100;2023-10-13T06:14:29;25.17;;;8.60;;
52268;SDS011;38224;50.950;4.100;2023-10-13T06:17:13;17.20;;;9.32;;
52268;SDS011;38224;50.950;4.100;2023-10-13T06:19:57;23.15;;;8.43;;
52268;SDS011;38224;50.950;4.100;2023-10-13T06:22:41;21.65;;;8.50;;
52268;SDS011;38224;50.950;4.100;2023-10-13T06:25:25;29.95;;;8.80;;
52268;SDS011;38224;50.950;4.100;2023-10-13T06:28:09;25.85;;;9.73;;
52268;SDS011;38224;50.950;4.100;2023-10-13T06:30:54;23.60;;;8.35;;
52268;SDS011;38224;50.950;4.100;2023-10-13T06:33:21;23.85;;;8.50;;
52268;SDS011;38224;50.950;4.100;2023-10-13T06:35:50;20.80;;;7.65;;
52268;SDS011;38224;50.950;4.100;2023-10-13T06:38:15;23.38;;;7.00;;
52268;SDS011;38224;50.950;4.100;2023-10-13T06:40:46;17.23;;;6.97;;
52268;SDS011;38224;50.950;4.100;2023-10-13T06:43:13;21.45;;;7.03;;
52268;SDS011;38224;50.950;4.100;2023-10-13T06:45:42;21.85;;;7.53;;
52268;SDS011;38224;50.950;4.100;2023-10-13T06:48:07;24.15;;;7.57;;
52268;SDS011;38224;50.950;4.100;2023-10-13T06:50:36;19.05;;;7.22;;
52268;SDS011;38224;50.950;4.100;2023-10-13T06:53:06;22.67;;;8.48;;
52268;SDS011;38224;50.950;4.100;2023-10-13T06:55:32;18.08;;;7.57;;
52268;SDS011;38224;50.950;4.100;2023-10-13T06:58:00;25.10;;;6.85;;
52268;SDS011;38224;50.950;4.100;2023-10-13T07:00:26;21.95;;;6.63;;
52268;SDS011;38224;50.950;4.100;2023-10-13T07:02:55;18.92;;;6.68;;
52268;SDS011;38224;50.950;4.100;2023-10-13T07:05:33;26.02;;;6.50;;
52268;SDS011;38224;50.950;4.100;2023-10-13T07:07:59;22.02;;;6.25;;
52268;SDS011;38224;50.950;4.100;2023-10-13T07:10:25;32.90;;;7.43;;
52268;SDS011;38224;50.950;4.100;2023-10-13T07:12:55;15.93;;;5.72;;
52268;SDS011;38224;50.950;4.100;2023-10-13T07:15:25;15.73;;;6.40;;
52268;SDS011;38224;50.950;4.100;2023-10-13T07:17:52;17.13;;;6.38;;
52268;SDS011;38224;50.950;4.100;2023-10-13T07:20:24;19.60;;;6.90;;
52268;SDS011;38224;50.950;4.100;2023-10-13T07:22:50;19.75;;;7.03;;
52268;SDS011;38224;50.950;4.100;2023-10-13T07:28:48;16.13;;;5.90;;
52268;SDS011;38224;50.950;4.100;2023-10-13T07:31:16;15.80;;;6.03;;
52268;SDS011;38224;50.950;4.100;2023-10-13T07:33:44;15.95;;;6.30;;
52268;SDS011;38224;50.950;4.100;2023-10-13T07:36:09;18.67;;;6.27;;
52268;SDS011;38224;50.950;4.100;2023-10-13T07:38:49;21.67;;;7.95;;
52268;SDS011;38224;50.950;4.100;2023-10-13T07:41:34;16.17;;;6.45;;
52268;SDS011;38224;50.950;4.100;2023-10-13T07:44:01;20.88;;;7.90;;
52268;SDS011;38224;50.950;4.100;2023-10-13T07:46:29;20.17;;;6.15;;
52268;SDS011;38224;50.950;4.100;2023-10-13T07:48:58;18.30;;;7.10;;
52268;SDS011;38224;50.950;4.100;2023-10-13T07:51:34;25.52;;;8.27;;
52268;SDS011;38224;50.950;4.100;2023-10-13T07:54:09;18.00;;;6.82;;
52268;SDS011;38224;50.950;4.100;2023-10-13T07:56:36;22.83;;;7.40;;
52268;SDS011;38224;50.950;4.100;2023-10-13T07:59:04;16.60;;;6.93;;
52268;SDS011;38224;50.950;4.100;2023-10-13T08:01:31;19.33;;;6.53;;
52268;SDS011;38224;50.950;4.100;2023-10-13T08:03:57;16.58;;;5.90;;
52268;SDS011;38224;50.950;4.100;2023-10-13T08:06:39;26.23;;;8.30;;
52268;SDS011;38224;50.950;4.100;2023-10-13T08:09:09;18.20;;;6.07;;
52268;SDS011;38224;50.950;4.100;2023-10-13T08:11:53;12.13;;;5.75;;
52268;SDS011;38224;50.950;4.100;2023-10-13T08:14:19;23.10;;;6.38;;
52268;SDS011;38224;50.950;4.100;2023-10-13T08:16:48;20.92;;;7.43;;
52268;SDS011;38224;50.950;4.100;2023-10-13T08:19:27;15.18;;;6.95;;
52268;SDS011;38224;50.950;4.100;2023-10-13T08:21:53;21.60;;;6.82;;
52268;SDS011;38224;50.950;4.100;2023-10-13T08:24:22;17.17;;;6.85;;
52268;SDS011;38224;50.950;4.100;2023-10-13T08:26:54;19.23;;;7.28;;
52268;SDS011;38224;50.950;4.100;2023-10-13T08:29:49;20.27;;;6.93;;
52268;SDS011;38224;50.950;4.100;2023-10-13T08:32:25;18.42;;;6.95;;
52268;SDS011;38224;50.950;4.100;2023-10-13T08:34:50;16.02;;;6.45;;
52268;SDS011;38224;50.950;4.100;2023-10-13T08:37:18;13.73;;;6.88;;
52268;SDS011;38224;50.950;4.100;2023-10-13T08:39:47;20.88;;;6.97;;
52268;SDS011;38224;50.950;4.100;2023-10-13T08:42:35;18.17;;;6.97;;
52268;SDS011;38224;50.950;4.100;2023-10-13T08:45:09;22.17;;;6.82;;
52268;SDS011;38224;50.950;4.100;2023-10-13T08:47:54;14.45;;;6.22;;
52268;SDS011;38224;50.950;4.100;2023-10-13T08:50:33;14.25;;;6.55;;
52268;SDS011;38224;50.950;4.100;2023-10-13T08:58:59;16.42;;;6.05;;
52268;SDS011;38224;50.950;4.100;2023-10-13T09:01:34;17.27;;;6.28;;
52268;SDS011;38224;50.950;4.100;2023-10-13T09:04:17;20.50;;;6.38;;
52268;SDS011;38224;50.950;4.100;2023-10-13T09:12:22;19.23;;;6.95;;
52268;SDS011;38224;50.950;4.100;2023-10-13T09:17:52;18.52;;;6.43;;
52268;SDS011;38224;50.950;4.100;2023-10-13T09:20:31;14.40;;;5.95;;
52268;SDS011;38224;50.950;4.100;2023-10-13T09:23:00;17.63;;;6.45;;
52268;SDS011;38224;50.950;4.100;2023-10-13T09:25:36;20.42;;;6.22;;
52268;SDS011;38224;50.950;4.100;2023-10-13T09:28:20;22.33;;;6.78;;
52268;SDS011;38224;50.950;4.100;2023-10-13T09:30:53;17.92;;;6.40;;
52268;SDS011;38224;50.950;4.100;2023-10-13T09:33:25;25.38;;;6.53;;
52268;SDS011;38224;50.950;4.100;2023-10-13T09:36:12;16.95;;;6.50;;
52268;SDS011;38224;50.950;4.100;2023-10-13T09:38:38;23.63;;;7.03;;
52268;SDS011;38224;50.950;4.100;2023-10-13T09:41:13;24.73;;;7.70;;
52268;SDS011;38224;50.950;4.100;2023-10-13T09:43:44;17.77;;;6.38;;
52268;SDS011;38224;50.950;4.100;2023-10-13T09:46:10;21.35;;;7.07;;
52268;SDS011;38224;50.950;4.100;2023-10-13T09:48:45;25.63;;;7.45;;
52268;SDS011;38224;50.950;4.100;2023-10-13T09:51:15;15.88;;;7.25;;
52268;SDS011;38224;50.950;4.100;2023-10-13T09:56:17;19.17;;;6.75;;
52268;SDS011;38224;50.950;4.100;2023-10-13T09:58:52;18.83;;;6.43;;
52268;SDS011;38224;50.950;4.100;2023-10-13T10:01:24;21.48;;;7.47;;
52268;SDS011;38224;50.950;4.100;2023-10-13T10:04:06;24.70;;;8.10;;
52268;SDS011;38224;50.950;4.100;2023-10-13T10:06:36;26.38;;;6.93;;
52268;SDS011;38224;50.950;4.100;2023-10-13T10:09:10;18.63;;;7.18;;
52268;SDS011;38224;50.950;4.100;2023-10-13T10:12:09;15.57;;;7.13;;
52268;SDS011;38224;50.950;4.100;2023-10-13T10:17:05;19.55;;;7.10;;
52268;SDS011;38224;50.950;4.100;2023-10-13T10:19:54;15.63;;;6.28;;
52268;SDS011;38224;50.950;4.100;2023-10-13T10:24:59;20.90;;;6.93;;
52268;SDS011;38224;50.950;4.100;2023-10-13T10:27:25;20.27;;;6.72;;
52268;SDS011;38224;50.950;4.100;2023-10-13T10:29:53;19.38;;;6.68;;
52268;SDS011;38224;50.950;4.100;2023-10-13T10:32:19;19.40;;;7.07;;
52268;SDS011;38224;50.950;4.100;2023-10-13T10:34:44;17.33;;;6.47;;
52268;SDS011;38224;50.950;4.100;2023-10-13T10:37:09;17.10;;;5.88;;
52268;SDS011;38224;50.950;4.100;2023-10-13T10:39:36;23.23;;;6.72;;
52268;SDS011;38224;50.950;4.100;2023-10-13T10:42:11;21.65;;;7.18;;
52268;SDS011;38224;50.950;4.100;2023-10-13T10:47:30;26.45;;;8.43;;
52268;SDS011;38224;50.950;4.100;2023-10-13T10:50:03;25.15;;;6.85;;
52268;SDS011;38224;50.950;4.100;2023-10-13T10:52:34;19.60;;;6.13;;
52268;SDS011;38224;50.950;4.100;2023-10-13T10:55:02;20.50;;;7.10;;
52268;SDS011;38224;50.950;4.100;2023-10-13T10:57:32;24.77;;;7.15;;
52268;SDS011;38224;50.950;4.100;2023-10-13T11:00:02;17.77;;;7.10;;
52268;SDS011;38224;50.950;4.100;2023-10-13T11:02:39;23.48;;;6.85;;
52268;SDS011;38224;50.950;4.100;2023-10-13T11:05:05;22.90;;;6.90;;
52268;SDS011;38224;50.950;4.100;2023-10-13T11:07:31;19.25;;;6.85;;
52268;SDS011;38224;50.950;4.100;2023-10-13T11:10:18;20.15;;;7.30;;
52268;SDS011;38224;50.950;4.100;2023-10-13T11:15:21;31.27;;;7.43;;
52268;SDS011;38224;50.950;4.100;2023-10-13T11:17:58;21.20;;;8.60;;
52268;SDS011;38224;50.950;4.100;2023-10-13T11:20:23;20.73;;;6.90;;
52268;SDS011;38224;50.950;4.100;2023-10-13T11:22:59;19.77;;;6.80;;
52268;SDS011;38224;50.950;4.100;2023-10-13T11:25:29;18.08;;;6.80;;
52268;SDS011;38224;50.950;4.100;2023-10-13T11:27:55;18.60;;;6.90;;
52268;SDS011;38224;50.950;4.100;2023-10-13T11:30:21;16.85;;;6.70;;
52268;SDS011;38224;50.950;4.100;2023-10-13T11:33:03;20.35;;;7.70;;
52268;SDS011;38224;50.950;4.100;2023-10-13T11:35:34;19.50;;;6.95;;
52268;SDS011;38224;50.950;4.100;2023-10-13T11:38:28;31.30;;;6.10;;
52268;SDS011;38224;50.950;4.100;2023-10-13T11:40:55;25.63;;;7.07;;
52268;SDS011;38224;50.950;4.100;2023-10-13T11:43:33;23.80;;;7.93;;
52268;SDS011;38224;50.950;4.100;2023-10-13T11:46:05;27.05;;;6.88;;
52268;SDS011;38224;50.950;4.100;2023-10-13T11:48:33;20.33;;;5.40;;
52268;SDS011;38224;50.950;4.100;2023-10-13T11:51:04;29.73;;;7.35;;
52268;SDS011;38224;50.950;4.100;2023-10-13T11:53:33;15.63;;;6.45;;
52268;SDS011;38224;50.950;4.100;2023-10-13T11:55:59;21.92;;;5.85;;
52268;SDS011;38224;50.950;4.100;2023-10-13T11:58:25;22.63;;;6.63;;
52268;SDS011;38224;50.950;4.100;2023-10-13T12:00:50;23.10;;;7.18;;
52268;SDS011;38224;50.950;4.100;2023-10-13T12:03:16;23.98;;;6.82;;
52268;SDS011;38224;50.950;4.100;2023-10-13T12:05:59;20.63;;;7.28;;
52268;SDS011;38224;50.950;4.100;2023-10-13T12:08:44;21.02;;;6.05;;
52268;SDS011;38224;50.950;4.100;2023-10-13T12:11:18;24.70;;;5.63;;
52268;SDS011;38224;50.950;4.100;2023-10-13T12:13:55;18.85;;;6.22;;
52268;SDS011;38224;50.950;4.100;2023-10-13T12:16:20;22.98;;;6.10;;
52268;SDS011;38224;50.950;4.100;2023-10-13T12:18:47;17.08;;;5.90;;
52268;SDS011;38224;50.950;4.100;2023-10-13T12:21:18;24.38;;;6.57;;
52268;SDS011;38224;50.950;4.100;2023-10-13T12:23:44;26.63;;;6.80;;
52268;SDS011;38224;50.950;4.100;2023-10-13T12:26:10;19.85;;;6.10;;
52268;SDS011;38224;50.950;4.100;2023-10-13T12:28:44;19.33;;;6.45;;
52268;SDS011;38224;50.950;4.100;2023-10-13T12:31:16;30.48;;;6.40;;
52268;SDS011;38224;50.950;4.100;2023-10-13T12:33:42;17.10;;;6.15;;
52268;SDS011;38224;50.950;4.100;2023-10-13T12:36:12;19.42;;;5.93;;
52268;SDS011;38224;50.950;4.100;2023-10-13T12:38:47;17.67;;;6.45;;
52268;SDS011;38224;50.950;4.100;2023-10-13T12:41:15;22.60;;;5.63;;
52268;SDS011;38224;50.950;4.100;2023-10-13T12:43:59;23.48;;;5.78;;
52268;SDS011;38224;50.950;4.100;2023-10-13T12:46:43;20.08;;;5.47;;
52268;SDS011;38224;50.950;4.100;2023-10-13T12:49:27;26.60;;;5.57;;
52268;SDS011;38224;50.950;4.100;2023-10-13T12:52:11;25.20;;;6.05;;
52268;SDS011;38224;50.950;4.100;2023-10-13T12:54:50;16.35;;;5.32;;
52268;SDS011;38224;50.950;4.100;2023-10-13T12:57:21;16.00;;;5.65;;
52268;SDS011;38224;50.950;4.100;2023-10-13T12:59:48;14.02;;;5.68;;
52268;SDS011;38224;50.950;4.100;2023-10-13T13:02:13;18.17;;;6.45;;
52268;SDS011;38224;50.950;4.100;2023-10-13T13:04:42;20.48;;;5.97;;
52268;SDS011;38224;50.950;4.100;2023-10-13T13:07:10;19.40;;;6.47;;
52268;SDS011;38224;50.950;4.100;2023-10-13T13:09:41;16.90;;;6.97;;
52268;SDS011;38224;50.950;4.100;2023-10-13T13:12:06;12.57;;;5.63;;
52268;SDS011;38224;50.950;4.100;2023-10-13T13:14:32;20.92;;;5.97;;
52268;SDS011;38224;50.950;4.100;2023-10-13T13:16:59;26.13;;;5.88;;
52268;SDS011;38224;50.950;4.100;2023-10-13T13:19:34;19.20;;;6.22;;
52268;SDS011;38224;50.950;4.100;2023-10-13T13:22:06;13.63;;;5.43;;
52268;SDS011;38224;50.950;4.100;2023-10-13T13:24:43;25.15;;;6.60;;
52268;SDS011;38224;50.950;4.100;2023-10-13T13:27:11;18.77;;;6.15;;
52268;SDS011;38224;50.950;4.100;2023-10-13T13:29:44;19.08;;;6.63;;
52268;SDS011;38224;50.950;4.100;2023-10-13T13:32:09;15.40;;;5.57;;
52268;SDS011;38224;50.950;4.100;2023-10-13T13:34:47;16.73;;;5.70;;
52268;SDS011;38224;50.950;4.100;2023-10-13T13:37:20;20.55;;;5.78;;
52268;SDS011;38224;50.950;4.100;2023-10-13T13:39:46;14.75;;;6.22;;
52268;SDS011;38224;50.950;4.100;2023-10-13T13:42:11;15.27;;;5.80;;
52268;SDS011;38224;50.950;4.100;2023-10-13T13:44:42;17.08;;;5.72;;
52268;SDS011;38224;50.950;4.100;2023-10-13T13:47:11;12.73;;;5.00;;
52268;SDS011;38224;50.950;4.100;2023-10-13T13:49:39;13.95;;;5.75;;
52268;SDS011;38224;50.950;4.100;2023-10-13T13:52:08;18.50;;;6.28;;
52268;SDS011;38224;50.950;4.100;2023-10-13T13:54:34;18.60;;;5.43;;
52268;SDS011;38224;50.950;4.100;2023-10-13T13:56:59;13.32;;;5.90;;
52268;SDS011;38224;50.950;4.100;2023-10-13T13:59:25;17.35;;;6.82;;
52268;SDS011;38224;50.950;4.100;2023-10-13T14:01:50;13.88;;;5.72;;
52268;SDS011;38224;50.950;4.100;2023-10-13T14:04:18;11.52;;;5.70;;
52268;SDS011;38224;50.950;4.100;2023-10-13T14:06:44;13.07;;;5.82;;
52268;SDS011;38224;50.950;4.100;2023-10-13T14:09:10;21.13;;;5.78;;
52268;SDS011;38224;50.950;4.100;2023-10-13T14:11:57;14.38;;;5.75;;
52268;SDS011;38224;50.950;4.100;2023-10-13T14:14:25;15.02;;;6.00;;
52268;SDS011;38224;50.950;4.100;2023-10-13T14:16:51;15.15;;;5.63;;
52268;SDS011;38224;50.950;4.100;2023-10-13T14:19:17;12.52;;;6.07;;
52268;SDS011;38224;50.950;4.100;2023-10-13T14:21:51;19.60;;;5.70;;
52268;SDS011;38224;50.950;4.100;2023-10-13T14:24:18;12.90;;;5.10;;
52268;SDS011;38224;50.950;4.100;2023-10-13T14:26:52;16.70;;;5.78;;
52268;SDS011;38224;50.950;4.100;2023-10-13T14:29:17;13.50;;;6.47;;
52268;SDS011;38224;50.950;4.100;2023-10-13T14:31:42;15.43;;;6.10;;
52268;SDS011;38224;50.950;4.100;2023-10-13T14:34:08;19.20;;;6.40;;
52268;SDS011;38224;50.950;4.100;2023-10-13T14:36:35;17.08;;;6.20;;
52268;SDS011;38224;50.950;4.100;2023-10-13T14:39:00;13.60;;;5.55;;
52268;SDS011;38224;50.950;4.100;2023-10-13T14:41:26;15.18;;;5.82;;
52268;SDS011;38224;50.950;4.100;2023-10-13T14:43:51;17.45;;;5.93;;
52268;SDS011;38224;50.950;4.100;2023-10-13T14:46:19;12.45;;;5.88;;
52268;SDS011;38224;50.950;4.100;2023-10-13T14:48:51;16.92;;;6.00;;
52268;SDS011;38224;50.950;4.100;2023-10-13T14:51:16;16.75;;;6.32;;
52268;SDS011;38224;50.950;4.100;2023-10-13T14:53:42;16.52;;;6.22;;
52268;SDS011;38224;50.950;4.100;2023-10-13T14:56:15;14.45;;;6.10;;
52268;SDS011;38224;50.950;4.100;2023-10-13T14:58:41;14.68;;;6.05;;
52268;SDS011;38224;50.950;4.100;2023-10-13T15:01:16;19.17;;;5.90;;
52268;SDS011;38224;50.950;4.100;2023-10-13T15:03:44;14.30;;;6.50;;
52268;SDS011;38224;50.950;4.100;2023-10-13T15:06:20;15.43;;;5.80;;
52268;SDS011;38224;50.950;4.100;2023-10-13T15:08:48;16.77;;;5.63;;
52268;SDS011;38224;50.950;4.100;2023-10-13T15:11:14;17.25;;;6.43;;
52268;SDS011;38224;50.950;4.100;2023-10-13T15:13:42;17.58;;;5.38;;
52268;SDS011;38224;50.950;4.100;2023-10-13T15:18:40;40.83;;;7.57;;
52268;SDS011;38224;50.950;4.100;2023-10-13T15:21:05;20.90;;;7.97;;
52268;SDS011;38224;50.950;4.100;2023-10-13T15:23:33;16.23;;;4.95;;
52268;SDS011;38224;50.950;4.100;2023-10-13T15:26:07;16.73;;;5.97;;
52268;SDS011;38224;50.950;4.100;2023-10-13T15:28:34;17.52;;;6.32;;
52268;SDS011;38224;50.950;4.100;2023-10-13T15:31:02;15.48;;;7.15;;
52268;SDS011;38224;50.950;4.100;2023-10-13T15:33:35;17.83;;;6.43;;
52268;SDS011;38224;50.950;4.100;2023-10-13T15:36:00;18.77;;;5.90;;